createdAt,value
2018-02-22T00:00:38.958Z,0.00
2018-02-22T00:01:38.880Z,0.00
2018-02-22T00:02:38.905Z,0.00
2018-02-22T00:03:39.074Z,0.00
2018-02-22T00:05:38.767Z,0.00
2018-02-22T00:06:39.999Z,0.00
2018-02-22T00:08:37.591Z,0.00
2018-02-22T00:08:38.676Z,0.00
2018-02-22T00:09:38.651Z,0.00
2018-02-22T00:10:38.620Z,0.00
2018-02-22T00:11:38.594Z,0.00
2018-02-22T00:12:38.614Z,0.00
2018-02-22T00:13:38.535Z,0.00
2018-02-22T00:14:38.757Z,0.00
2018-02-22T00:15:38.477Z,0.00
2018-02-22T00:16:38.450Z,0.00
2018-02-22T00:17:38.426Z,0.00
2018-02-22T00:18:38.450Z,0.00
2018-02-22T00:20:38.636Z,0.00
2018-02-22T00:21:38.309Z,0.00
2018-02-22T00:22:38.278Z,0.00
2018-02-22T00:23:38.355Z,0.00
2018-02-22T00:25:38.249Z,0.00
2018-02-22T00:26:38.417Z,0.00
2018-02-22T00:27:38.135Z,0.00
2018-02-22T00:28:38.109Z,0.00
2018-02-22T00:29:38.083Z,0.00
2018-02-22T00:30:38.068Z,0.00
2018-02-22T00:31:38.078Z,0.00
2018-02-22T00:32:38.248Z,0.00
2018-02-22T00:33:37.974Z,0.00
2018-02-22T00:35:37.914Z,0.00
2018-02-22T00:36:37.888Z,0.00
2018-02-22T00:37:37.906Z,0.00
2018-02-22T00:38:38.087Z,0.00
2018-02-22T00:39:37.799Z,0.00
2018-02-22T00:40:37.770Z,0.00
2018-02-22T00:41:37.742Z,0.00
2018-02-22T00:42:37.712Z,0.00
2018-02-22T00:43:39.240Z,0.00
2018-02-22T00:44:37.958Z,0.00
2018-02-22T00:45:37.637Z,0.00
2018-02-22T00:46:37.603Z,0.00
2018-02-22T00:47:37.590Z,0.00
2018-02-22T00:48:37.543Z,0.00
2018-02-22T00:49:37.565Z,0.00
2018-02-22T00:50:37.734Z,0.00
2018-02-22T00:51:37.450Z,0.00
2018-02-22T00:52:37.423Z,0.00
2018-02-22T00:53:37.397Z,0.00
2018-02-22T00:54:37.363Z,0.00
2018-02-22T00:55:37.337Z,0.00
2018-02-22T00:56:37.558Z,0.00
2018-02-22T00:57:37.282Z,0.00
2018-02-22T00:58:37.251Z,0.00
2018-02-22T00:59:37.223Z,0.00
2018-02-22T01:01:37.220Z,0.00
2018-02-22T01:02:37.437Z,0.00
2018-02-22T01:03:37.109Z,0.00
2018-02-22T01:04:37.086Z,0.00
2018-02-22T01:05:37.050Z,0.00
2018-02-22T01:06:37.025Z,0.00
2018-02-22T01:07:37.046Z,0.00
2018-02-22T01:08:37.216Z,0.00
2018-02-22T01:09:36.937Z,0.00
2018-02-22T01:10:36.909Z,0.00
2018-02-22T01:11:36.895Z,0.00
2018-02-22T01:12:36.855Z,0.00
2018-02-22T01:13:36.876Z,0.00
2018-02-22T01:14:37.051Z,0.00
2018-02-22T01:15:36.784Z,0.00
2018-02-22T01:16:36.749Z,0.00
2018-02-22T01:17:36.714Z,0.00
2018-02-22T01:18:36.787Z,0.00
2018-02-22T01:19:38.509Z,0.00
2018-02-22T01:20:36.622Z,0.00
2018-02-22T01:21:36.595Z,0.00
2018-02-22T01:23:36.539Z,0.00
2018-02-22T01:24:36.510Z,0.00
2018-02-22T01:25:36.837Z,0.00
2018-02-22T01:27:36.427Z,0.00
2018-02-22T01:28:36.393Z,0.00
2018-02-22T01:29:36.365Z,0.00
2018-02-22T01:30:36.338Z,0.00
2018-02-22T01:31:36.661Z,0.00
2018-02-22T01:32:36.279Z,0.00
2018-02-22T01:33:36.253Z,0.00
2018-02-22T01:34:36.230Z,0.00
2018-02-22T01:35:36.194Z,0.00
2018-02-22T01:36:36.166Z,0.00
2018-02-22T01:37:36.186Z,0.00
2018-02-22T01:38:36.106Z,0.00
2018-02-22T01:39:36.078Z,0.00
2018-02-22T01:40:36.052Z,0.00
2018-02-22T01:42:36.291Z,0.00
2018-02-22T01:43:36.014Z,0.00
2018-02-22T01:44:36.038Z,0.00
2018-02-22T01:45:35.904Z,0.00
2018-02-22T01:46:35.882Z,0.00
2018-02-22T01:47:35.848Z,0.00
2018-02-22T01:48:36.070Z,0.00
2018-02-22T01:49:37.040Z,0.00
2018-02-22T01:51:35.731Z,0.00
2018-02-22T01:52:35.716Z,0.00
2018-02-22T01:53:35.673Z,0.00
2018-02-22T01:54:35.898Z,0.00
2018-02-22T01:55:35.673Z,0.00
2018-02-22T01:56:35.594Z,0.00
2018-02-22T01:57:35.656Z,0.00
2018-02-22T01:58:35.525Z,0.00
2018-02-22T01:59:35.513Z,0.00
2018-02-22T02:00:35.726Z,0.00
2018-02-22T02:01:35.894Z,0.00
2018-02-22T02:02:35.411Z,0.00
2018-02-22T02:03:35.383Z,0.00
2018-02-22T02:04:35.354Z,0.00
2018-02-22T02:05:35.323Z,0.00
2018-02-22T02:06:35.594Z,0.00
2018-02-22T02:07:35.318Z,0.00
2018-02-22T02:08:35.243Z,0.00
2018-02-22T02:09:35.207Z,0.00
2018-02-22T02:10:35.178Z,0.00
2018-02-22T02:11:35.152Z,0.00
2018-02-22T02:12:35.369Z,0.00
2018-02-22T02:13:36.341Z,0.00
2018-02-22T02:14:35.060Z,0.00
2018-02-22T02:15:35.036Z,0.00
2018-02-22T02:16:35.004Z,0.00
2018-02-22T02:17:34.972Z,0.00
2018-02-22T02:18:35.242Z,0.00
2018-02-22T02:19:34.964Z,0.00
2018-02-22T02:20:34.884Z,0.00
2018-02-22T02:21:34.855Z,0.00
2018-02-22T02:22:34.826Z,0.00
2018-02-22T02:23:34.796Z,0.00
2018-02-22T02:24:35.071Z,0.00
2018-02-22T02:25:36.091Z,0.00
2018-02-22T02:26:34.708Z,0.00
2018-02-22T02:27:34.687Z,0.00
2018-02-22T02:28:34.649Z,0.00
2018-02-22T02:29:34.624Z,0.00
2018-02-22T02:30:34.843Z,0.00
2018-02-22T02:32:09.030Z,0.00
2018-02-22T02:32:34.533Z,0.00
2018-02-22T02:33:34.504Z,0.00
2018-02-22T02:35:34.443Z,0.00
2018-02-22T02:36:34.675Z,0.00
2018-02-22T02:37:34.451Z,0.00
2018-02-22T02:38:34.363Z,0.00
2018-02-22T02:39:34.332Z,0.00
2018-02-22T02:40:34.300Z,0.00
2018-02-22T02:41:34.268Z,0.00
2018-02-22T02:43:34.561Z,0.00
2018-02-22T02:44:34.207Z,0.00
2018-02-22T02:45:34.250Z,0.00
2018-02-22T02:46:34.120Z,0.00
2018-02-22T02:47:34.099Z,0.00
2018-02-22T02:48:34.061Z,0.00
2018-02-22T02:49:34.383Z,0.00
2018-02-22T02:50:34.005Z,0.00
2018-02-22T02:51:33.972Z,0.00
2018-02-22T02:52:33.944Z,0.00
2018-02-22T02:53:33.916Z,0.00
2018-02-22T02:54:33.885Z,0.00
2018-02-22T02:55:34.210Z,0.00
2018-02-22T02:56:33.827Z,0.00
2018-02-22T02:57:33.805Z,0.00
2018-02-22T02:58:33.786Z,0.00
2018-02-22T02:59:33.738Z,0.00
2018-02-22T03:00:33.710Z,0.00
2018-02-22T03:01:34.327Z,0.00
2018-02-22T03:02:33.759Z,0.00
2018-02-22T03:03:33.627Z,0.00
2018-02-22T03:04:33.590Z,0.00
2018-02-22T03:05:33.569Z,0.00
2018-02-22T03:06:33.533Z,0.00
2018-02-22T03:07:33.801Z,0.00
2018-02-22T03:08:33.472Z,0.00
2018-02-22T03:09:33.443Z,0.00
2018-02-22T03:10:33.417Z,0.00
2018-02-22T03:11:33.385Z,0.00
2018-02-22T03:13:33.675Z,0.00
2018-02-22T03:14:33.296Z,0.00
2018-02-22T03:16:33.234Z,0.00
2018-02-22T03:17:33.211Z,0.00
2018-02-22T03:18:33.176Z,0.00
2018-02-22T03:19:33.447Z,0.00
2018-02-22T03:20:33.116Z,0.00
2018-02-22T03:21:33.087Z,0.00
2018-02-22T03:22:33.067Z,0.00
2018-02-22T03:23:33.030Z,0.00
2018-02-22T03:24:33.001Z,0.00
2018-02-22T03:25:33.269Z,0.00
2018-02-22T03:26:32.940Z,0.00
2018-02-22T03:27:32.917Z,0.00
2018-02-22T03:28:32.882Z,0.00
2018-02-22T03:29:32.852Z,0.00
2018-02-22T03:30:32.824Z,0.00
2018-02-22T03:31:33.195Z,0.00
2018-02-22T03:32:32.772Z,0.00
2018-02-22T03:33:32.733Z,0.00
2018-02-22T03:36:32.650Z,0.00
2018-02-22T03:37:32.971Z,0.00
2018-02-22T03:38:32.587Z,0.00
2018-02-22T03:39:32.561Z,0.00
2018-02-22T03:40:32.536Z,0.00
2018-02-22T03:41:32.496Z,0.00
2018-02-22T03:42:32.470Z,0.00
2018-02-22T03:43:32.743Z,0.00
2018-02-22T03:44:32.408Z,0.00
2018-02-22T03:45:32.390Z,0.00
2018-02-22T03:46:32.349Z,0.00
2018-02-22T03:47:32.327Z,0.00
2018-02-22T03:48:32.289Z,0.00
2018-02-22T03:50:32.531Z,0.00
2018-02-22T03:51:32.200Z,0.00
2018-02-22T03:52:32.169Z,0.00
2018-02-22T03:53:32.141Z,0.00
2018-02-22T03:54:32.113Z,0.00
2018-02-22T03:55:32.087Z,0.00
2018-02-22T03:56:32.402Z,0.00
2018-02-22T03:57:32.023Z,0.00
2018-02-22T03:59:31.963Z,0.00
2018-02-22T04:00:31.936Z,0.00
2018-02-22T04:01:31.902Z,0.00
2018-02-22T04:02:33.391Z,0.00
2018-02-22T04:03:31.845Z,0.00
2018-02-22T04:04:31.820Z,0.00
2018-02-22T04:05:31.785Z,0.00
2018-02-22T04:06:31.756Z,0.00
2018-02-22T04:07:31.726Z,0.00
2018-02-22T04:08:31.996Z,0.00
2018-02-22T04:10:31.638Z,0.00
2018-02-22T04:11:31.606Z,0.00
2018-02-22T04:12:31.601Z,0.00
2018-02-22T04:13:31.572Z,0.00
2018-02-22T04:14:31.866Z,0.00
2018-02-22T04:15:31.498Z,0.00
2018-02-22T04:16:31.459Z,0.00
2018-02-22T04:17:31.528Z,0.00
2018-02-22T04:18:31.500Z,0.00
2018-02-22T04:19:31.371Z,0.00
2018-02-22T04:21:31.611Z,0.00
2018-02-22T04:22:31.278Z,0.00
2018-02-22T04:23:31.252Z,0.00
2018-02-22T04:24:31.423Z,0.00
2018-02-22T04:25:31.190Z,0.00
2018-02-22T04:26:31.161Z,0.00
2018-02-22T04:27:32.636Z,0.00
2018-02-22T04:28:31.108Z,0.00
2018-02-22T04:29:31.072Z,0.00
2018-02-22T04:30:31.049Z,0.00
2018-02-22T04:31:31.016Z,0.00
2018-02-22T04:32:30.987Z,0.00
2018-02-22T04:33:31.256Z,0.00
2018-02-22T04:34:30.927Z,0.00
2018-02-22T04:35:30.897Z,0.00
2018-02-22T04:36:30.870Z,0.00
2018-02-22T04:37:30.837Z,0.00
2018-02-22T04:38:30.808Z,0.00
2018-02-22T04:39:31.076Z,0.00
2018-02-22T04:40:30.748Z,0.00
2018-02-22T04:41:30.740Z,0.00
2018-02-22T04:42:30.688Z,0.00
2018-02-22T04:43:30.667Z,0.00
2018-02-22T04:45:30.900Z,0.00
2018-02-22T04:46:30.575Z,0.00
2018-02-22T04:47:30.546Z,0.00
2018-02-22T04:48:30.519Z,0.00
2018-02-22T04:49:30.484Z,0.00
2018-02-22T04:51:31.525Z,0.00
2018-02-22T04:52:30.394Z,0.00
2018-02-22T04:53:30.364Z,0.00
2018-02-22T04:54:30.336Z,0.00
2018-02-22T04:56:30.731Z,0.00
2018-02-22T04:57:30.599Z,0.00
2018-02-22T04:58:30.235Z,0.00
2018-02-22T04:59:30.191Z,0.00
2018-02-22T05:00:30.160Z,0.00
2018-02-22T05:01:30.132Z,0.00
2018-02-22T05:02:30.104Z,0.00
2018-02-22T05:03:30.725Z,0.00
2018-02-22T05:04:30.043Z,0.00
2018-02-22T05:05:30.015Z,0.00
2018-02-22T05:06:29.984Z,0.00
2018-02-22T05:07:29.956Z,0.00
2018-02-22T05:08:29.925Z,0.00
2018-02-22T05:09:30.252Z,0.00
2018-02-22T05:11:29.839Z,0.00
2018-02-22T05:12:29.807Z,0.00
2018-02-22T05:13:29.777Z,0.00
2018-02-22T05:15:30.029Z,0.00
2018-02-22T05:16:29.690Z,0.00
2018-02-22T05:18:29.633Z,0.00
2018-02-22T05:19:29.610Z,0.00
2018-02-22T05:20:29.572Z,0.00
2018-02-22T05:21:29.843Z,0.00
2018-02-22T05:22:29.515Z,0.00
2018-02-22T05:23:29.483Z,0.00
2018-02-22T05:24:29.454Z,0.00
2018-02-22T05:25:29.430Z,0.00
2018-02-22T05:26:29.398Z,0.00
2018-02-22T05:27:29.416Z,0.00
2018-02-22T05:28:29.637Z,0.00
2018-02-22T05:29:29.309Z,0.00
2018-02-22T05:30:29.279Z,0.00
2018-02-22T05:31:29.251Z,0.00
2018-02-22T05:32:29.227Z,0.00
2018-02-22T05:33:29.242Z,0.00
2018-02-22T05:36:29.350Z,0.00
2018-02-22T05:37:29.072Z,0.00
2018-02-22T05:38:29.047Z,0.00
2018-02-22T05:39:29.014Z,0.00
2018-02-22T05:40:28.986Z,0.00
2018-02-22T05:41:28.959Z,0.00
2018-02-22T05:42:29.243Z,0.00
2018-02-22T05:43:28.920Z,0.00
2018-02-22T05:44:28.867Z,0.00
2018-02-22T05:45:29.016Z,0.00
2018-02-22T05:46:28.811Z,0.00
2018-02-22T05:47:28.786Z,0.00
2018-02-22T05:48:29.065Z,0.00
2018-02-22T05:49:28.724Z,0.00
2018-02-22T05:50:28.697Z,0.00
2018-02-22T05:51:28.728Z,0.00
2018-02-22T05:52:28.641Z,0.00
2018-02-22T05:54:29.495Z,0.00
2018-02-22T05:55:28.592Z,0.00
2018-02-22T05:56:28.522Z,0.00
2018-02-22T05:57:28.646Z,0.00
2018-02-22T05:58:28.460Z,0.00
2018-02-22T05:59:28.432Z,0.00
2018-02-22T06:00:28.413Z,0.00
2018-02-22T06:01:28.672Z,0.00
2018-02-22T06:02:28.343Z,0.00
2018-02-22T06:03:28.365Z,0.00
2018-02-22T06:04:28.284Z,0.00
2018-02-22T06:05:28.260Z,0.00
2018-02-22T06:06:28.231Z,0.00
2018-02-22T06:07:28.200Z,0.00
2018-02-22T06:08:28.467Z,0.00
2018-02-22T06:09:28.192Z,0.00
2018-02-22T06:10:28.127Z,0.00
2018-02-22T06:11:28.079Z,0.00
2018-02-22T06:12:28.050Z,0.00
2018-02-22T06:13:28.025Z,0.00
2018-02-22T06:14:28.008Z,5.63
2018-02-22T06:15:28.071Z,5.63
2018-02-22T06:16:27.933Z,5.63
2018-02-22T06:17:27.904Z,5.63
2018-02-22T06:18:27.872Z,5.63
2018-02-22T06:19:27.842Z,5.63
2018-02-22T06:20:27.812Z,5.63
2018-02-22T06:23:28.076Z,11.25
2018-02-22T06:24:27.819Z,11.25
2018-02-22T06:25:27.698Z,11.25
2018-02-22T06:26:27.675Z,11.25
2018-02-22T06:27:27.907Z,16.88
2018-02-22T06:28:27.579Z,16.88
2018-02-22T06:29:28.036Z,16.88
2018-02-22T06:30:27.523Z,16.88
2018-02-22T06:31:27.560Z,16.88
2018-02-22T06:32:27.466Z,22.50
2018-02-22T06:33:27.487Z,22.50
2018-02-22T06:34:27.700Z,22.50
2018-02-22T06:35:27.756Z,22.50
2018-02-22T06:36:27.404Z,28.13
2018-02-22T06:37:27.351Z,28.13
2018-02-22T06:38:27.284Z,28.13
2018-02-22T06:39:27.286Z,28.13
2018-02-22T06:40:27.595Z,33.75
2018-02-22T06:41:27.246Z,33.75
2018-02-22T06:42:27.170Z,33.75
2018-02-22T06:43:27.154Z,39.38
2018-02-22T06:44:27.124Z,39.38
2018-02-22T06:46:27.349Z,45.00
2018-02-22T06:47:27.153Z,45.00
2018-02-22T06:48:26.986Z,45.00
2018-02-22T06:49:26.976Z,50.63
2018-02-22T06:50:27.033Z,50.63
2018-02-22T06:51:26.939Z,56.25
2018-02-22T06:52:27.211Z,56.25
2018-02-22T06:53:27.008Z,61.88
2018-02-22T06:54:26.818Z,67.50
2018-02-22T06:55:26.811Z,67.50
2018-02-22T06:56:26.993Z,73.13
2018-02-22T06:57:26.776Z,73.13
2018-02-22T06:58:26.997Z,78.75
2018-02-22T06:59:26.726Z,84.38
2018-02-22T07:00:26.670Z,84.38
2018-02-22T07:01:26.753Z,90.00
2018-02-22T07:02:26.625Z,95.63
2018-02-22T07:03:26.675Z,95.63
2018-02-22T07:04:26.743Z,101.25
2018-02-22T07:05:26.854Z,106.88
2018-02-22T07:06:26.463Z,106.88
2018-02-22T07:07:26.433Z,106.88
2018-02-22T07:08:26.414Z,106.88
2018-02-22T07:09:26.370Z,106.88
2018-02-22T07:10:26.340Z,106.88
2018-02-22T07:11:26.704Z,106.88
2018-02-22T07:12:26.296Z,106.88
2018-02-22T07:13:26.254Z,106.88
2018-02-22T07:14:26.254Z,112.50
2018-02-22T07:15:26.199Z,112.50
2018-02-22T07:16:26.171Z,118.13
2018-02-22T07:17:26.188Z,123.75
2018-02-22T07:18:26.415Z,123.75
2018-02-22T07:19:26.088Z,123.75
2018-02-22T07:20:26.052Z,129.38
2018-02-22T07:21:26.032Z,135.00
2018-02-22T07:22:25.996Z,129.38
2018-02-22T07:23:26.035Z,129.38
2018-02-22T07:24:25.938Z,129.38
2018-02-22T07:25:25.913Z,135.00
2018-02-22T07:26:25.882Z,135.00
2018-02-22T07:27:25.858Z,140.63
2018-02-22T07:28:25.824Z,140.63
2018-02-22T07:29:25.846Z,146.25
2018-02-22T07:30:25.771Z,151.88
2018-02-22T07:31:25.998Z,151.88
2018-02-22T07:32:25.713Z,157.50
2018-02-22T07:33:25.727Z,157.50
2018-02-22T07:34:25.657Z,157.50
2018-02-22T07:35:25.977Z,168.75
2018-02-22T07:36:25.600Z,180.00
2018-02-22T07:37:25.571Z,180.00
2018-02-22T07:38:25.546Z,185.63
2018-02-22T07:39:25.516Z,191.25
2018-02-22T07:40:25.491Z,202.50
2018-02-22T07:41:25.515Z,202.50
2018-02-22T07:42:25.436Z,208.13
2018-02-22T07:43:25.412Z,213.75
2018-02-22T07:44:25.630Z,219.38
2018-02-22T07:45:25.363Z,225.00
2018-02-22T07:46:25.324Z,230.63
2018-02-22T07:47:25.451Z,236.25
2018-02-22T07:48:25.269Z,236.25
2018-02-22T07:49:25.244Z,241.88
2018-02-22T07:50:25.223Z,247.50
2018-02-22T07:51:25.445Z,253.13
2018-02-22T07:52:25.173Z,253.13
2018-02-22T07:53:25.192Z,247.50
2018-02-22T07:54:25.120Z,253.13
2018-02-22T07:55:25.156Z,264.38
2018-02-22T07:56:25.070Z,264.38
2018-02-22T07:57:25.041Z,270.00
2018-02-22T07:58:25.016Z,275.63
2018-02-22T07:59:25.045Z,298.13
2018-02-22T08:00:24.976Z,303.75
2018-02-22T08:01:24.944Z,320.63
2018-02-22T08:02:24.920Z,331.88
2018-02-22T08:03:24.891Z,348.75
2018-02-22T08:04:25.164Z,343.13
2018-02-22T08:05:24.896Z,343.13
2018-02-22T08:06:24.826Z,360.00
2018-02-22T08:07:24.797Z,360.00
2018-02-22T08:08:24.769Z,365.63
2018-02-22T08:09:24.750Z,354.38
2018-02-22T08:10:25.037Z,354.38
2018-02-22T08:11:24.758Z,354.38
2018-02-22T08:13:24.655Z,376.88
2018-02-22T08:14:24.631Z,393.75
2018-02-22T08:15:24.709Z,438.75
2018-02-22T08:16:24.886Z,523.13
2018-02-22T08:17:24.730Z,714.38
2018-02-22T08:18:24.548Z,967.50
2018-02-22T08:19:24.526Z,1170.00
2018-02-22T08:20:24.499Z,1248.75
2018-02-22T08:21:24.479Z,1276.88
2018-02-22T08:22:24.763Z,1265.63
2018-02-22T08:23:24.504Z,1181.25
2018-02-22T08:24:24.411Z,1068.75
2018-02-22T08:25:24.406Z,556.88
2018-02-22T08:26:24.481Z,601.88
2018-02-22T08:28:24.639Z,298.13
2018-02-22T08:29:24.376Z,393.75
2018-02-22T08:30:24.284Z,371.25
2018-02-22T08:31:24.281Z,388.13
2018-02-22T08:32:24.739Z,596.25
2018-02-22T08:33:24.221Z,523.13
2018-02-22T08:34:24.231Z,675.00
2018-02-22T08:35:24.242Z,455.63
2018-02-22T08:36:24.160Z,568.13
2018-02-22T08:37:24.193Z,506.25
2018-02-22T08:38:24.115Z,573.75
2018-02-22T08:39:25.371Z,489.38
2018-02-22T08:40:24.395Z,590.63
2018-02-22T08:42:24.489Z,658.13
2018-02-22T08:43:24.012Z,663.75
2018-02-22T08:44:24.270Z,646.88
2018-02-22T08:45:23.971Z,658.13
2018-02-22T08:46:24.256Z,669.38
2018-02-22T08:47:23.930Z,675.00
2018-02-22T08:48:24.329Z,669.38
2018-02-22T08:49:23.888Z,691.88
2018-02-22T08:50:23.866Z,697.50
2018-02-22T08:51:23.845Z,697.50
2018-02-22T08:52:23.826Z,669.38
2018-02-22T08:53:23.805Z,590.63
2018-02-22T08:54:23.835Z,618.75
2018-02-22T08:55:23.870Z,613.13
2018-02-22T08:56:23.744Z,624.38
2018-02-22T08:57:23.723Z,703.13
2018-02-22T08:58:23.707Z,663.75
2018-02-22T08:59:23.987Z,624.38
2018-02-22T09:00:23.818Z,641.25
2018-02-22T09:01:23.872Z,680.63
2018-02-22T09:02:23.636Z,624.38
2018-02-22T09:03:23.616Z,652.50
2018-02-22T09:04:23.590Z,635.63
2018-02-22T09:05:23.580Z,613.13
2018-02-22T09:06:23.599Z,613.13
2018-02-22T09:07:23.531Z,585.00
2018-02-22T09:08:23.515Z,528.75
2018-02-22T09:09:23.496Z,523.13
2018-02-22T09:10:23.472Z,573.75
2018-02-22T09:11:23.756Z,573.75
2018-02-22T09:12:23.488Z,579.38
2018-02-22T09:13:23.467Z,585.00
2018-02-22T09:14:23.404Z,585.00
2018-02-22T09:15:23.382Z,568.13
2018-02-22T09:16:23.368Z,551.25
2018-02-22T09:17:23.646Z,534.38
2018-02-22T09:18:23.326Z,528.75
2018-02-22T09:19:23.356Z,495.00
2018-02-22T09:20:23.344Z,433.13
2018-02-22T09:21:23.274Z,427.50
2018-02-22T09:22:23.251Z,461.25
2018-02-22T09:23:23.535Z,466.88
2018-02-22T09:24:23.217Z,472.50
2018-02-22T09:25:23.209Z,483.75
2018-02-22T09:26:23.235Z,483.75
2018-02-22T09:27:23.166Z,495.00
2018-02-22T09:28:23.153Z,500.63
2018-02-22T09:29:23.432Z,495.00
2018-02-22T09:30:23.116Z,483.75
2018-02-22T09:31:23.098Z,478.13
2018-02-22T09:32:23.128Z,472.50
2018-02-22T09:33:23.063Z,478.13
2018-02-22T09:34:23.102Z,489.38
2018-02-22T09:35:23.029Z,489.38
2018-02-22T09:36:23.008Z,489.38
2018-02-22T09:37:22.996Z,466.88
2018-02-22T09:38:23.095Z,466.88
2018-02-22T09:39:23.109Z,472.50
2018-02-22T09:40:22.941Z,472.50
2018-02-22T09:41:23.182Z,483.75
2018-02-22T09:42:22.912Z,472.50
2018-02-22T09:43:22.906Z,444.38
2018-02-22T09:44:23.036Z,455.63
2018-02-22T09:45:22.861Z,461.25
2018-02-22T09:46:22.843Z,444.38
2018-02-22T09:47:22.832Z,427.50
2018-02-22T09:48:22.939Z,421.88
2018-02-22T09:49:22.798Z,433.13
2018-02-22T09:50:22.916Z,405.00
2018-02-22T09:51:22.764Z,450.00
2018-02-22T09:52:22.760Z,461.25
2018-02-22T09:53:22.736Z,461.25
2018-02-22T09:54:22.737Z,489.38
2018-02-22T09:55:22.834Z,489.38
2018-02-22T09:56:22.736Z,500.63
2018-02-22T09:57:22.673Z,495.00
2018-02-22T09:58:23.285Z,500.63
2018-02-22T09:59:22.639Z,511.88
2018-02-22T10:00:22.820Z,511.88
2018-02-22T10:01:22.609Z,534.38
2018-02-22T10:02:22.639Z,556.88
2018-02-22T10:03:22.579Z,579.38
2018-02-22T10:04:22.958Z,630.00
2018-02-22T10:05:22.546Z,652.50
2018-02-22T10:06:22.535Z,675.00
2018-02-22T10:07:22.513Z,675.00
2018-02-22T10:08:22.552Z,675.00
2018-02-22T10:09:22.496Z,646.88
2018-02-22T10:10:22.771Z,646.88
2018-02-22T10:13:22.425Z,697.50
2018-02-22T10:14:22.461Z,731.25
2018-02-22T10:15:22.399Z,742.50
2018-02-22T10:16:22.678Z,765.00
2018-02-22T10:17:22.365Z,776.25
2018-02-22T10:19:22.338Z,787.50
2018-02-22T10:20:22.731Z,759.38
2018-02-22T10:21:22.362Z,714.38
2018-02-22T10:22:22.296Z,658.13
2018-02-22T10:23:22.284Z,624.38
2018-02-22T10:24:22.291Z,585.00
2018-02-22T10:26:22.299Z,596.25
2018-02-22T10:28:22.471Z,618.75
2018-02-22T10:29:22.216Z,613.13
2018-02-22T10:30:22.202Z,624.38
2018-02-22T10:31:22.184Z,545.63
2018-02-22T10:32:22.642Z,646.88
2018-02-22T10:34:22.455Z,731.25
2018-02-22T10:35:22.139Z,731.25
2018-02-22T10:37:22.115Z,691.88
2018-02-22T10:38:22.151Z,669.38
2018-02-22T10:39:22.090Z,663.75
2018-02-22T10:40:22.388Z,658.13
2018-02-22T10:41:22.070Z,691.88
2018-02-22T10:42:22.059Z,731.25
2018-02-22T10:43:22.045Z,720.00
2018-02-22T10:44:22.082Z,714.38
2018-02-22T10:45:22.020Z,714.38
2018-02-22T10:46:22.008Z,686.25
2018-02-22T10:47:21.999Z,720.00
2018-02-22T10:48:21.996Z,703.13
2018-02-22T10:49:21.979Z,652.50
2018-02-22T10:50:22.013Z,646.88
2018-02-22T10:51:21.952Z,658.13
2018-02-22T10:52:21.943Z,686.25
2018-02-22T10:53:22.228Z,697.50
2018-02-22T10:54:21.934Z,720.00
2018-02-22T10:55:21.940Z,545.63
2018-02-22T10:56:22.302Z,759.38
2018-02-22T10:57:21.883Z,765.00
2018-02-22T10:58:21.882Z,703.13
2018-02-22T10:59:22.160Z,759.38
2018-02-22T11:00:21.851Z,770.63
2018-02-22T11:01:21.891Z,703.13
2018-02-22T11:02:21.898Z,568.13
2018-02-22T11:03:21.812Z,551.25
2018-02-22T11:04:21.804Z,483.75
2018-02-22T11:05:22.090Z,421.88
2018-02-22T11:06:21.778Z,399.38
2018-02-22T11:07:21.775Z,399.38
2018-02-22T11:08:22.104Z,444.38
2018-02-22T11:09:21.779Z,472.50
2018-02-22T11:10:21.731Z,489.38
2018-02-22T11:11:21.718Z,483.75
2018-02-22T11:12:21.704Z,523.13
2018-02-22T11:13:21.701Z,495.00
2018-02-22T11:14:21.736Z,478.13
2018-02-22T11:15:21.674Z,500.63
2018-02-22T11:16:21.908Z,472.50
2018-02-22T11:17:21.643Z,461.25
2018-02-22T11:18:21.660Z,455.63
2018-02-22T11:19:21.619Z,450.00
2018-02-22T11:20:21.663Z,421.88
2018-02-22T11:21:21.590Z,388.13
2018-02-22T11:23:21.853Z,365.63
2018-02-22T11:24:21.546Z,348.75
2018-02-22T11:25:21.533Z,517.50
2018-02-22T11:26:21.557Z,540.00
2018-02-22T11:27:21.499Z,905.63
2018-02-22T11:28:21.478Z,540.00
2018-02-22T11:29:21.765Z,1068.75
2018-02-22T11:30:21.449Z,826.88
2018-02-22T11:31:21.431Z,663.75
2018-02-22T11:32:21.463Z,646.88
2018-02-22T11:33:21.435Z,354.38
2018-02-22T11:34:21.385Z,331.88
2018-02-22T11:35:21.367Z,399.38
2018-02-22T11:36:21.354Z,1293.75
2018-02-22T11:37:21.332Z,1411.88
2018-02-22T11:38:21.365Z,1333.13
2018-02-22T11:39:21.304Z,1006.88
2018-02-22T11:40:21.292Z,945.00
2018-02-22T11:41:21.571Z,1091.25
2018-02-22T11:42:21.250Z,1305.00
2018-02-22T11:43:21.237Z,978.75
2018-02-22T11:44:21.267Z,826.88
2018-02-22T11:45:21.321Z,1771.88
2018-02-22T11:46:21.212Z,1203.75
2018-02-22T11:47:21.176Z,1665.00
2018-02-22T11:48:21.456Z,1845.00
2018-02-22T11:49:21.143Z,1923.75
2018-02-22T11:50:21.281Z,1935.00
2018-02-22T11:51:21.112Z,2025.00
2018-02-22T11:52:21.109Z,1912.50
2018-02-22T11:53:21.083Z,2064.38
2018-02-22T11:54:21.074Z,2002.50
2018-02-22T11:55:21.300Z,1861.88
2018-02-22T11:56:21.186Z,1890.00
2018-02-22T11:57:21.033Z,1839.38
2018-02-22T11:58:21.009Z,1856.25
2018-02-22T11:59:21.014Z,646.88
2018-02-22T12:00:20.985Z,506.25
2018-02-22T12:01:21.272Z,500.63
2018-02-22T12:02:21.046Z,1507.50
2018-02-22T12:03:20.948Z,1372.50
2018-02-22T12:04:20.948Z,1732.50
2018-02-22T12:05:20.936Z,1788.75
2018-02-22T12:06:20.917Z,1845.00
2018-02-22T12:07:21.198Z,1276.88
2018-02-22T12:08:21.299Z,1783.13
2018-02-22T12:09:20.888Z,1006.88
2018-02-22T12:10:20.863Z,371.25
2018-02-22T12:11:20.856Z,371.25
2018-02-22T12:12:20.842Z,1220.63
2018-02-22T12:13:21.125Z,2030.63
2018-02-22T12:14:20.861Z,1878.75
2018-02-22T12:15:20.900Z,1153.13
2018-02-22T12:16:20.788Z,883.13
2018-02-22T12:17:20.843Z,781.88
2018-02-22T12:18:20.788Z,1271.25
2018-02-22T12:19:21.075Z,1906.88
2018-02-22T12:21:20.770Z,1996.88
2018-02-22T12:22:20.720Z,2008.13
2018-02-22T12:23:20.695Z,2053.13
2018-02-22T12:24:20.675Z,2070.00
2018-02-22T12:25:20.671Z,2013.75
2018-02-22T12:26:22.114Z,1929.38
2018-02-22T12:27:20.643Z,1996.88
2018-02-22T12:28:20.663Z,1428.75
2018-02-22T12:29:20.614Z,1018.13
2018-02-22T12:30:20.631Z,961.88
2018-02-22T12:34:21.263Z,916.88
2018-02-22T12:35:20.544Z,995.63
2018-02-22T12:36:20.536Z,1456.88
2018-02-22T12:37:20.530Z,1884.38
2018-02-22T12:38:20.715Z,523.13
2018-02-22T12:39:20.500Z,1743.75
2018-02-22T12:40:20.554Z,1670.63
2018-02-22T12:41:20.481Z,1648.13
2018-02-22T12:42:20.475Z,1423.13
2018-02-22T12:43:20.472Z,1248.75
2018-02-22T12:44:20.446Z,376.88
2018-02-22T12:45:20.822Z,433.13
2018-02-22T12:46:20.488Z,1828.13
2018-02-22T12:47:20.429Z,686.25
2018-02-22T12:48:20.407Z,1276.88
2018-02-22T12:49:20.400Z,1051.88
2018-02-22T12:50:20.431Z,365.63
2018-02-22T12:51:20.692Z,354.38
2018-02-22T12:52:20.420Z,337.50
2018-02-22T12:53:20.351Z,315.00
2018-02-22T12:54:20.340Z,315.00
2018-02-22T12:55:20.344Z,556.88
2018-02-22T12:56:20.349Z,1563.75
2018-02-22T12:57:20.300Z,1288.13
2018-02-22T12:59:20.728Z,326.25
2018-02-22T13:01:20.309Z,326.25
2018-02-22T13:03:20.470Z,393.75
2018-02-22T13:04:20.206Z,393.75
2018-02-22T13:05:20.242Z,371.25
2018-02-22T13:06:20.182Z,478.13
2018-02-22T13:07:20.170Z,1012.50
2018-02-22T13:08:20.150Z,1608.75
2018-02-22T13:09:20.454Z,1597.50
2018-02-22T13:10:20.139Z,450.00
2018-02-22T13:11:20.154Z,376.88
2018-02-22T13:12:20.092Z,405.00
2018-02-22T13:13:20.079Z,433.13
2018-02-22T13:14:20.063Z,506.25
2018-02-22T13:15:20.048Z,894.38
2018-02-22T13:16:20.282Z,618.75
2018-02-22T13:17:21.267Z,950.63
2018-02-22T13:18:20.002Z,573.75
2018-02-22T13:19:19.995Z,821.25
2018-02-22T13:20:19.983Z,866.25
2018-02-22T13:21:19.962Z,984.38
2018-02-22T13:22:19.951Z,843.75
2018-02-22T13:23:20.236Z,545.63
2018-02-22T13:24:19.934Z,613.13
2018-02-22T13:25:19.905Z,568.13
2018-02-22T13:26:19.891Z,641.25
2018-02-22T13:27:19.870Z,675.00
2018-02-22T13:28:19.855Z,433.13
2018-02-22T13:29:19.999Z,331.88
2018-02-22T13:30:20.080Z,275.63
2018-02-22T13:31:19.816Z,236.25
2018-02-22T13:32:19.809Z,225.00
2018-02-22T13:33:19.783Z,208.13
2018-02-22T13:34:19.771Z,191.25
2018-02-22T13:35:20.107Z,191.25
2018-02-22T13:36:19.989Z,191.25
2018-02-22T13:37:19.735Z,196.88
2018-02-22T13:38:19.713Z,196.88